Time;durP1;ratioP1;P1;durP2;ratioP2;P2;SDS_P1;SDS_P2;PMS_P1;PMS_P2;Temp;Humidity;BMP_temperature;BMP_pressure;BME280_temperature;BME280_humidity;BME280_pressure;Samples;Min_cycle;Max_cycle;Signal;HPM_P1;HPM_P2
2022/05/16 00:01:34;;;;;;;5.43;2.47;;;;;;;22.24;38.33;101238.47;5074572;28;20048;-64
2022/05/16 00:04:02;;;;;;;7.20;2.70;;;;;;;22.14;38.41;101230.34;5075731;28;20394;-63
2022/05/16 00:06:30;;;;;;;8.07;2.53;;;;;;;22.13;38.29;101237.75;5076556;28;20087;-63
2022/05/16 00:08:58;;;;;;;6.18;2.63;;;;;;;22.19;38.42;101244.81;5071366;28;20048;-64
2022/05/16 00:11:27;;;;;;;6.80;2.45;;;;;;;22.17;38.48;101243.47;5070872;28;20044;-64
2022/05/16 00:13:55;;;;;;;5.88;2.95;;;;;;;22.14;38.49;101244.84;5077701;28;20083;-64
2022/05/16 00:16:23;;;;;;;5.95;2.63;;;;;;;22.12;38.44;101230.66;5076796;28;20056;-64
2022/05/16 00:18:51;;;;;;;6.97;2.58;;;;;;;22.10;38.63;101232.84;5076556;28;20428;-64
2022/05/16 00:21:19;;;;;;;7.15;3.03;;;;;;;22.10;38.54;101226.56;5075077;28;20072;-64
2022/05/16 00:23:47;;;;;;;5.68;2.67;;;;;;;22.08;38.64;101235.06;5073077;28;20072;-64
2022/05/16 00:26:15;;;;;;;6.22;3.22;;;;;;;22.07;38.60;101220.56;5079414;28;20088;-64
2022/05/16 00:28:44;;;;;;;4.35;2.22;;;;;;;22.06;38.43;101220.84;5083491;28;20063;-64
2022/05/16 00:31:12;;;;;;;5.88;2.60;;;;;;;22.04;38.55;101223.06;5070061;28;20072;-64
2022/05/16 00:33:41;;;;;;;12.82;3.20;;;;;;;22.03;38.60;101226.91;5071312;28;20048;-64
2022/05/16 00:36:09;;;;;;;6.55;2.50;;;;;;;22.00;38.69;101220.06;5071630;28;20138;-64
2022/05/16 00:38:37;;;;;;;9.75;3.22;;;;;;;21.99;38.71;101218.44;5077748;28;20056;-64
2022/05/16 00:41:06;;;;;;;7.15;2.92;;;;;;;22.00;38.71;101221.97;5073627;28;20076;-65
2022/05/16 00:43:52;;;;;;;8.18;2.83;;;;;;;21.97;38.70;101220.63;5067165;28;20115;-63
2022/05/16 00:46:21;;;;;;;9.18;3.13;;;;;;;21.96;38.68;101221.75;5076852;28;20049;-65
2022/05/16 00:48:50;;;;;;;7.90;2.40;;;;;;;21.93;38.76;101219.56;5080340;28;20041;-65
2022/05/16 00:51:23;;;;;;;6.25;2.25;;;;;;;21.91;38.75;101220.97;5077202;28;20052;-64
2022/05/16 00:53:56;;;;;;;5.88;3.03;;;;;;;21.90;38.79;101222.06;5072685;28;20076;-63
2022/05/16 00:56:25;;;;;;;6.45;2.83;;;;;;;21.89;38.80;101215.78;5072850;28;20087;-63
2022/05/16 00:58:56;;;;;;;6.28;2.92;;;;;;;21.88;38.97;101213.34;5074515;28;20052;-64
2022/05/16 01:06:59;;;;;;;4.20;2.65;;;;;;;21.82;38.82;101214.50;5082990;28;20041;-64
2022/05/16 01:09:27;;;;;;;6.85;2.63;;;;;;;21.77;38.96;101210.69;5073781;28;20290;-65
2022/05/16 01:11:56;;;;;;;10.93;3.35;;;;;;;21.76;38.99;101217.28;5076540;28;20091;-64
2022/05/16 01:14:44;;;;;;;4.97;2.70;;;;;;;21.74;39.02;101221.41;5079986;28;20072;-64
2022/05/16 01:17:12;;;;;;;9.25;3.50;;;;;;;21.71;39.14;101214.59;5081621;28;20500;-64
2022/05/16 01:19:40;;;;;;;9.85;2.72;;;;;;;21.70;39.04;101223.06;5073565;28;20040;-64
2022/05/16 01:22:18;;;;;;;6.68;2.72;;;;;;;21.67;39.08;101223.66;5073212;28;20067;-64
2022/05/16 01:24:46;;;;;;;6.43;3.00;;;;;;;21.66;39.18;101227.50;5081750;28;20068;-63
2022/05/16 01:27:14;;;;;;;8.70;3.22;;;;;;;21.63;39.11;101219.84;5073473;28;20558;-63
2022/05/16 01:29:42;;;;;;;6.78;3.15;;;;;;;21.48;39.16;101200.84;5077020;28;20080;-64
2022/05/16 01:32:11;;;;;;;9.55;2.78;;;;;;;21.59;39.37;101216.06;5086072;28;20407;-64
2022/05/16 01:34:40;;;;;;;6.80;2.70;;;;;;;21.55;39.31;101217.72;5075511;28;20084;-64
2022/05/16 01:37:08;;;;;;;4.70;2.45;;;;;;;21.53;39.32;101219.94;5073913;28;20080;-63
2022/05/16 01:39:37;;;;;;;5.47;3.08;;;;;;;21.52;39.40;101219.13;5075940;28;20048;-64
2022/05/16 01:42:05;;;;;;;6.30;2.75;;;;;;;21.50;39.54;101215.84;5079607;28;20124;-64
2022/05/16 01:44:33;;;;;;;6.35;2.72;;;;;;;21.50;39.40;101217.78;5073712;28;20079;-64
2022/05/16 01:47:01;;;;;;;5.35;2.80;;;;;;;21.48;39.66;101217.25;5078485;28;20104;-64
2022/05/16 01:49:29;;;;;;;6.75;3.20;;;;;;;21.44;39.55;101209.63;5078210;28;20108;-64
2022/05/16 01:51:56;;;;;;;8.75;3.05;;;;;;;21.42;39.63;101209.09;5074831;28;20040;-64
2022/05/16 01:54:24;;;;;;;8.57;3.10;;;;;;;21.41;39.62;101206.63;5080933;28;20095;-64
2022/05/16 01:56:53;;;;;;;8.75;3.15;;;;;;;21.39;39.71;101201.44;5079036;28;20087;-64
2022/05/16 01:59:21;;;;;;;6.75;2.88;;;;;;;21.38;39.61;101205.28;5078535;28;20809;-64
2022/05/16 02:01:48;;;;;;;9.85;2.83;;;;;;;21.36;39.58;101202.00;5082136;28;20044;-63
2022/05/16 02:04:16;;;;;;;7.47;2.90;;;;;;;21.34;39.66;101193.28;5077182;28;20067;-63
2022/05/16 02:06:44;;;;;;;6.20;2.83;;;;;;;21.32;39.73;101189.19;5076491;28;20076;-64
2022/05/16 02:09:12;;;;;;;4.70;2.28;;;;;;;21.34;39.74;101195.19;5075005;28;20044;-64
2022/05/16 02:11:39;;;;;;;5.90;2.85;;;;;;;21.30;39.81;101194.94;5073292;28;20441;-64
2022/05/16 02:14:09;;;;;;;5.65;2.72;;;;;;;21.29;39.91;101189.78;5081090;28;20067;-64
2022/05/16 02:16:37;;;;;;;7.45;2.88;;;;;;;21.27;40.03;101179.13;5078911;28;20072;-63
2022/05/16 02:19:04;;;;;;;7.38;2.95;;;;;;;21.26;39.90;101174.75;5076673;28;20045;-64
2022/05/16 02:27:03;;;;;;;5.53;2.70;;;;;;;21.21;40.01;101174.75;5080467;28;20171;-64
2022/05/16 02:29:34;;;;;;;10.32;3.15;;;;;;;21.19;39.98;101174.22;5076609;28;20044;-64
2022/05/16 02:32:02;;;;;;;4.85;2.53;;;;;;;21.18;40.18;101174.50;5081899;28;20040;-64
2022/05/16 02:34:29;;;;;;;11.93;2.75;;;;;;;21.16;40.22;101172.06;5063718;28;20095;-64
2022/05/16 02:36:58;;;;;;;8.25;3.17;;;;;;;21.15;40.17;101166.88;5075276;28;20057;-64
2022/05/16 02:39:26;;;;;;;6.22;2.95;;;;;;;21.12;40.16;101162.81;5070082;28;20051;-64
2022/05/16 02:41:54;;;;;;;7.90;3.28;;;;;;;21.11;40.19;101161.97;5074799;28;20040;-64
2022/05/16 02:44:22;;;;;;;7.30;3.00;;;;;;;21.09;40.10;101155.97;5071625;28;20162;-64
2022/05/16 02:46:51;;;;;;;5.63;3.03;;;;;;;21.07;40.28;101155.44;5073862;28;20202;-63
2022/05/16 02:49:21;;;;;;;15.45;4.40;;;;;;;21.07;40.26;101154.63;5074770;28;20615;-63
2022/05/16 02:51:49;;;;;;;7.97;3.45;;;;;;;21.03;40.40;101145.38;5075363;28;20040;-64
2022/05/16 02:54:16;;;;;;;7.63;3.30;;;;;;;21.00;40.24;101140.47;5074355;28;20045;-64
2022/05/16 02:56:44;;;;;;;5.93;2.63;;;;;;;21.00;40.48;101143.22;5080944;28;20269;-63
2022/05/16 02:59:12;;;;;;;7.18;2.83;;;;;;;20.98;40.79;101145.41;5073471;28;20076;-64
2022/05/16 03:01:40;;;;;;;6.90;2.75;;;;;;;20.96;40.56;101140.22;5078356;28;20568;-64
2022/05/16 03:04:09;;;;;;;6.72;2.75;;;;;;;20.94;40.74;101136.16;5078571;28;20049;-64
2022/05/16 03:06:37;;;;;;;6.78;3.38;;;;;;;20.90;40.84;101132.34;5062871;28;20095;-64
2022/05/16 03:09:04;;;;;;;6.53;2.63;;;;;;;20.91;40.94;101131.25;5069637;28;20041;-63
2022/05/16 03:11:32;;;;;;;6.30;2.95;;;;;;;20.87;40.72;101128.28;5073624;28;20087;-63
2022/05/16 03:14:00;;;;;;;7.03;3.03;;;;;;;20.86;41.17;101140.31;5077575;28;20076;-64
2022/05/16 03:16:27;;;;;;;7.15;3.03;;;;;;;20.85;40.90;101140.59;5080146;28;20060;-64
2022/05/16 03:18:55;;;;;;;6.63;2.40;;;;;;;20.83;41.10;101149.06;5076501;28;20251;-64
2022/05/16 03:21:24;;;;;;;6.68;2.88;;;;;;;20.81;41.00;101145.78;5074001;28;20055;-64
2022/05/16 03:23:52;;;;;;;5.25;2.45;;;;;;;20.78;40.72;101143.66;5077039;28;20049;-63
2022/05/16 03:26:20;;;;;;;7.05;3.17;;;;;;;20.76;41.15;101143.94;5071831;28;20084;-64
2022/05/16 03:28:47;;;;;;;8.98;3.08;;;;;;;20.74;40.96;101135.22;5075359;28;20040;-64
2022/05/16 03:31:15;;;;;;;8.63;2.72;;;;;;;20.73;41.11;101141.78;5076847;28;20125;-64
2022/05/16 03:33:43;;;;;;;9.13;3.60;;;;;;;20.72;41.20;101134.69;5076501;28;20648;-64
2022/05/16 03:36:11;;;;;;;6.55;3.08;;;;;;;20.71;41.08;101140.44;5072975;28;20071;-64
2022/05/16 03:41:23;;;;;;;10.07;3.58;;;;;;;20.66;41.25;101141.28;5035836;28;20143;-64
2022/05/16 03:43:51;;;;;;;9.57;2.97;;;;;;;20.64;41.23;101139.91;5075306;28;20040;-64
2022/05/16 03:46:19;;;;;;;5.82;2.65;;;;;;;20.63;41.16;101136.38;5079331;28;20075;-64
2022/05/16 03:48:47;;;;;;;9.25;3.58;;;;;;;20.60;41.36;101128.75;5074108;28;20048;-63
2022/05/16 03:51:15;;;;;;;7.55;3.13;;;;;;;20.61;41.32;101126.81;5071582;28;20118;-64
2022/05/16 03:53:46;;;;;;;8.23;3.08;;;;;;;20.60;41.44;101134.19;5073325;28;20073;-64
2022/05/16 03:56:15;;;;;;;6.82;3.38;;;;;;;20.58;41.33;101125.47;5073203;28;20383;-64
2022/05/16 03:58:44;;;;;;;7.25;3.00;;;;;;;20.58;41.32;101125.47;5070877;28;20554;-64
2022/05/16 04:01:13;;;;;;;8.65;2.72;;;;;;;20.57;41.34;101132.03;5076165;28;20104;-64
2022/05/16 04:03:41;;;;;;;6.43;2.90;;;;;;;20.56;41.28;101129.59;5079095;28;20051;-64
2022/05/16 04:06:09;;;;;;;5.97;3.15;;;;;;;20.51;41.38;101122.25;5091577;28;20040;-64
2022/05/16 04:08:37;;;;;;;5.10;3.28;;;;;;;20.52;41.62;101136.72;5070169;28;20127;-63
2022/05/16 04:11:07;;;;;;;4.93;2.50;;;;;;;20.50;41.50;101131.53;5072099;28;20140;-65
2022/05/16 04:13:35;;;;;;;7.57;2.78;;;;;;;20.49;41.35;101137.25;5077523;28;20064;-64
2022/05/16 04:16:03;;;;;;;6.13;2.85;;;;;;;20.49;41.31;101134.53;5083663;28;20110;-64
2022/05/16 04:18:33;;;;;;;6.85;2.70;;;;;;;20.48;41.59;101150.09;5074361;28;20135;-64
2022/05/16 04:21:01;;;;;;;6.88;2.55;;;;;;;20.46;41.61;101144.09;5077027;28;20045;-64
2022/05/16 04:23:29;;;;;;;7.38;2.92;;;;;;;20.44;41.65;101141.66;5073736;28;20077;-64
2022/05/16 04:25:56;;;;;;;5.93;2.60;;;;;;;20.43;41.69;101139.22;5086485;28;20090;-64
2022/05/16 04:28:26;;;;;;;5.18;2.78;;;;;;;20.31;41.80;101128.59;5076644;28;20076;-63
2022/05/16 04:30:54;;;;;;;4.50;2.90;;;;;;;20.41;41.64;101144.13;5082460;28;20103;-64
2022/05/16 04:33:22;;;;;;;6.82;2.78;;;;;;;20.38;41.45;101145.50;5076138;28;20066;-63
2022/05/16 04:35:49;;;;;;;7.65;3.00;;;;;;;20.38;41.54;101147.38;5077798;28;20084;-63
2022/05/16 04:38:17;;;;;;;8.38;3.78;;;;;;;20.37;41.91;101143.03;5075448;28;20044;-65
2022/05/16 04:43:31;;;;;;;4.10;2.53;;;;;;;20.34;41.79;101147.13;5084140;28;20052;-63
2022/05/16 04:46:01;;;;;;;5.78;2.33;;;;;;;20.33;41.91;101150.97;5081106;28;20055;-63
2022/05/16 04:48:29;;;;;;;3.45;2.20;;;;;;;20.32;41.62;101146.59;5072405;28;20041;-63
2022/05/16 04:50:57;;;;;;;7.70;2.75;;;;;;;20.32;41.88;101149.31;5072369;28;20079;-64
2022/05/16 04:53:25;;;;;;;4.47;2.60;;;;;;;20.28;41.88;101150.97;5075005;28;20071;-64
2022/05/16 04:55:53;;;;;;;6.03;2.75;;;;;;;20.21;41.73;101141.44;5078576;28;20052;-64
2022/05/16 04:58:22;;;;;;;4.60;2.42;;;;;;;20.27;42.02;101140.34;5076035;28;20060;-63
2022/05/16 05:00:51;;;;;;;6.05;3.33;;;;;;;20.26;42.15;101141.44;5074129;28;20057;-63
2022/05/16 05:03:19;;;;;;;8.07;2.30;;;;;;;20.25;41.87;101143.34;5078271;28;20053;-63
2022/05/16 05:05:46;;;;;;;5.70;2.88;;;;;;;20.24;42.16;101160.00;5079237;28;20052;-63
2022/05/16 05:08:14;;;;;;;6.15;2.80;;;;;;;20.24;42.10;101155.34;5080898;28;20051;-63
2022/05/16 05:16:16;;;;;;;5.05;2.50;;;;;;;20.21;42.14;101163.28;5071580;28;20182;-65
2022/05/16 05:18:45;;;;;;;5.53;2.30;;;;;;;20.20;42.13;101158.94;5067614;28;20140;-63
2022/05/16 05:21:13;;;;;;;4.90;2.42;;;;;;;20.19;42.22;101162.75;5077280;28;20039;-61
2022/05/16 05:23:41;;;;;;;4.88;2.80;;;;;;;20.18;42.48;101164.66;5081568;28;20079;-64
2022/05/16 05:26:11;;;;;;;5.70;2.55;;;;;;;20.16;42.27;101155.94;5083022;28;20076;-63
2022/05/16 05:28:41;;;;;;;6.55;2.60;;;;;;;20.15;42.52;101159.75;5077974;28;20057;-61
2022/05/16 05:31:12;;;;;;;7.35;2.38;;;;;;;20.15;42.35;101148.84;5073048;28;20086;-61
2022/05/16 05:33:42;;;;;;;6.07;2.45;;;;;;;20.12;42.51;101155.69;5071651;28;20042;-63
2022/05/16 05:36:10;;;;;;;4.97;2.55;;;;;;;20.13;42.18;101161.94;5071890;28;20467;-63
2022/05/16 05:38:38;;;;;;;3.67;2.03;;;;;;;20.12;42.54;101166.59;5079057;28;20096;-64
2022/05/16 05:41:07;;;;;;;6.90;2.30;;;;;;;20.11;42.65;101175.88;5079079;28;20090;-62
2022/05/16 05:43:35;;;;;;;6.45;3.00;;;;;;;19.95;42.58;101149.72;5074139;28;20096;-62
2022/05/16 05:46:05;;;;;;;3.97;2.00;;;;;;;20.10;42.38;101173.41;4715181;28;9999830;-63
2022/05/16 05:48:33;;;;;;;6.78;2.55;;;;;;;20.11;42.48;101183.25;5083579;28;20052;-63
2022/05/16 05:51:02;;;;;;;5.13;2.67;;;;;;;19.99;42.36;101161.72;5073521;28;20083;-64
2022/05/16 05:53:30;;;;;;;3.90;2.03;;;;;;;20.12;42.21;101188.41;5074141;28;21126;-62
2022/05/16 05:55:58;;;;;;;5.28;2.30;;;;;;;20.12;42.27;101184.88;5072894;28;20083;-64
2022/05/16 05:58:26;;;;;;;4.65;2.47;;;;;;;20.12;42.27;101187.59;5063378;28;20084;-64
2022/05/16 06:00:54;;;;;;;4.05;2.33;;;;;;;20.12;42.26;101188.41;5072429;28;20078;-64
2022/05/16 06:03:22;;;;;;;4.38;2.20;;;;;;;20.13;42.26;101194.69;5067993;28;20125;-63
2022/05/16 06:05:49;;;;;;;3.25;1.90;;;;;;;20.13;42.23;101198.25;5073240;28;20055;-61
2022/05/16 06:08:19;;;;;;;5.70;2.67;;;;;;;20.13;42.33;101194.69;5068305;28;20049;-63
2022/05/16 06:10:47;;;;;;;5.55;2.50;;;;;;;20.13;42.57;101191.97;5068203;28;20102;-63
2022/05/16 06:13:15;;;;;;;6.38;2.45;;;;;;;20.12;42.58;101193.88;5064122;28;20063;-63
2022/05/16 06:15:42;;;;;;;8.93;2.70;;;;;;;20.12;42.92;101195.78;4726255;28;10000051;-64
2022/05/16 06:18:10;;;;;;;2.55;2.03;;;;;;;20.12;42.56;101209.44;5068989;28;20059;-63
2022/05/16 06:20:38;;;;;;;7.25;2.58;;;;;;;20.14;42.74;101199.06;5077194;28;20036;-64
2022/05/16 06:23:06;;;;;;;4.80;2.53;;;;;;;20.15;42.51;101204.25;5080232;28;20045;-63
2022/05/16 06:25:39;;;;;;;7.30;2.30;;;;;;;20.16;42.56;101205.06;5077736;28;20083;-63
2022/05/16 06:28:09;;;;;;;4.13;2.42;;;;;;;20.16;42.63;101207.78;5080272;28;20098;-63
2022/05/16 06:30:39;;;;;;;5.47;2.38;;;;;;;20.19;42.57;101220.06;5078224;28;20079;-63
2022/05/16 06:33:07;;;;;;;4.20;2.13;;;;;;;20.21;42.85;101215.97;5062708;28;20091;-64
2022/05/16 06:35:36;;;;;;;4.13;2.00;;;;;;;20.34;44.46;101220.84;5071111;28;20082;-62
2022/05/16 06:38:06;;;;;;;7.25;2.25;;;;;;;20.36;43.41;101217.81;5081138;28;20048;-63
2022/05/16 06:40:36;;;;;;;4.07;1.90;;;;;;;20.36;43.21;101215.91;5065088;28;20313;-63
2022/05/16 06:43:04;;;;;;;4.18;2.38;;;;;;;20.41;43.51;101217.84;5061782;28;20710;-63
2022/05/16 06:45:31;;;;;;;4.88;2.28;;;;;;;20.33;43.41;101224.66;5073383;28;20131;-64
2022/05/16 06:48:01;;;;;;;7.18;2.08;;;;;;;20.29;43.44;101220.84;5073727;28;20048;-65
2022/05/16 06:50:30;;;;;;;6.00;2.88;;;;;;;20.30;43.55;101227.13;5074853;28;20072;-64
2022/05/16 06:52:58;;;;;;;5.45;2.22;;;;;;;20.18;43.49;101200.13;5079550;28;20048;-63
2022/05/16 06:55:27;;;;;;;6.97;2.38;;;;;;;20.29;43.67;101234.50;5066814;28;20068;-63
2022/05/16 06:57:57;;;;;;;6.10;2.30;;;;;;;20.30;44.00;101227.13;5071632;28;20052;-63
2022/05/16 07:00:26;;;;;;;5.88;2.30;;;;;;;20.30;44.06;101232.59;5070116;28;20478;-63
2022/05/16 07:02:54;;;;;;;11.68;3.28;;;;;;;20.32;44.37;101230.41;5081497;28;20045;-64
2022/05/16 07:05:42;;;;;;;6.18;2.83;;;;;;;20.40;45.27;101230.69;5075546;28;20044;-64
2022/05/16 07:08:11;;;;;;;8.30;2.58;;;;;;;20.39;44.33;101237.22;5076172;28;20418;-63
2022/05/16 07:10:39;;;;;;;8.63;2.50;;;;;;;20.41;44.90;101235.03;5073343;28;20067;-64
2022/05/16 07:13:09;;;;;;;9.60;2.85;;;;;;;20.39;44.69;101239.97;5066559;28;20110;-64
2022/05/16 07:15:37;;;;;;;8.82;2.85;;;;;;;20.38;44.75;101243.78;5068859;28;20529;-64
2022/05/16 07:18:05;;;;;;;8.02;2.30;;;;;;;20.38;44.71;101245.66;5079127;28;20045;-65
2022/05/16 07:20:38;;;;;;;7.32;2.50;;;;;;;20.29;44.66;101228.22;5076846;28;20061;-65
2022/05/16 07:23:06;;;;;;;5.90;2.20;;;;;;;20.39;44.55;101244.59;5068981;28;20087;-64
2022/05/16 07:27:56;;;;;;;9.43;2.40;;;;;;;20.34;45.02;101245.41;5081863;28;20080;-64
2022/05/16 07:28:23;;;;;;;5.07;1.90;;;;;;;20.41;44.77;101245.97;5070455;28;20128;-64
2022/05/16 07:30:51;;;;;;;4.93;2.25;;;;;;;20.30;44.75;101227.13;5078543;28;20072;-64
2022/05/16 07:33:20;;;;;;;5.45;2.70;;;;;;;20.43;44.94;101243.78;5078389;28;20045;-65
2022/05/16 07:35:50;;;;;;;5.15;2.20;;;;;;;20.43;44.73;101248.41;5077856;28;20055;-64
2022/05/16 07:38:19;;;;;;;11.00;2.50;;;;;;;20.43;44.77;101243.78;5067962;28;20198;-64
2022/05/16 07:40:47;;;;;;;8.30;2.22;;;;;;;20.44;45.13;101250.88;5081462;28;20385;-64
2022/05/16 07:43:15;;;;;;;4.07;2.40;;;;;;;20.42;44.75;101238.59;5072351;28;20069;-64
2022/05/16 07:45:44;;;;;;;7.07;2.30;;;;;;;20.47;44.95;101252.22;5066643;28;20132;-65
2022/05/16 07:48:12;;;;;;;8.73;2.22;;;;;;;20.49;45.16;101252.75;5074434;28;20116;-64
2022/05/16 07:50:41;;;;;;;5.50;1.92;;;;;;;20.49;45.24;101260.97;5061607;28;20256;-64
2022/05/16 07:53:11;;;;;;;8.57;2.55;;;;;;;20.50;44.93;101259.03;5069047;28;20459;-64
2022/05/16 07:55:41;;;;;;;6.30;2.55;;;;;;;20.54;45.81;101262.84;5064205;28;20107;-63
2022/05/16 07:58:09;;;;;;;12.75;2.00;;;;;;;20.53;45.43;101262.03;5062075;28;20080;-63
2022/05/16 08:00:37;;;;;;;6.82;2.17;;;;;;;20.55;45.51;101257.13;5066651;28;20068;-63
2022/05/16 08:03:10;;;;;;;7.25;2.70;;;;;;;20.59;46.14;101255.47;5079225;28;20079;-63
2022/05/16 08:05:38;;;;;;;8.93;2.60;;;;;;;20.61;46.04;101256.00;5063033;28;20065;-63
2022/05/16 08:10:52;;;;;;;11.20;2.85;;;;;;;20.67;45.91;101256.81;5069454;28;20459;-64
2022/05/16 08:13:20;;;;;;;4.70;2.15;;;;;;;20.80;46.19;101259.72;5073987;28;20044;-63
2022/05/16 08:15:48;;;;;;;6.38;2.20;;;;;;;20.78;45.74;101263.84;5077982;28;20068;-64
2022/05/16 08:18:17;;;;;;;5.57;2.20;;;;;;;20.92;46.28;101264.84;5080214;28;20186;-64
2022/05/16 08:20:47;;;;;;;7.30;2.50;;;;;;;21.04;46.95;101267.25;5081340;28;20041;-64
2022/05/16 08:23:18;;;;;;;7.47;2.78;;;;;;;21.09;46.20;101269.97;5071009;28;20053;-64
2022/05/16 08:25:47;;;;;;;5.70;2.17;;;;;;;21.05;46.00;101274.34;5080389;28;20064;-64
2022/05/16 08:28:16;;;;;;;7.60;2.35;;;;;;;21.05;46.54;101272.44;5080367;28;20080;-64
2022/05/16 08:30:44;;;;;;;5.00;1.98;;;;;;;21.09;47.07;101278.97;5072068;28;20529;-63
2022/05/16 08:33:12;;;;;;;11.40;1.90;;;;;;;21.21;47.03;101281.38;5071651;28;20082;-64
2022/05/16 08:35:41;;;;;;;6.97;2.20;;;;;;;21.30;47.20;101285.19;5080887;28;20084;-64
2022/05/16 08:40:59;;;;;;;11.52;2.30;;;;;;;21.25;46.59;101271.53;5073121;28;20056;-65
2022/05/16 08:43:47;;;;;;;6.40;2.40;;;;;;;21.26;46.82;101277.81;5076528;28;20048;-65
2022/05/16 08:46:25;;;;;;;7.57;1.77;;;;;;;21.29;46.83;101275.34;5075706;28;20460;-63
2022/05/16 08:48:58;;;;;;;4.43;1.67;;;;;;;21.26;46.97;101281.38;5074562;28;20088;-62
2022/05/16 08:51:33;;;;;;;8.38;2.30;;;;;;;21.25;47.27;101263.34;5075603;28;20048;-67
2022/05/16 08:54:06;;;;;;;4.82;2.33;;;;;;;21.34;47.74;101261.63;5089353;28;20033;-64
2022/05/16 08:56:37;;;;;;;4.53;2.03;;;;;;;21.36;47.56;101264.09;5079284;28;20059;-63
2022/05/16 08:59:07;;;;;;;5.13;1.90;;;;;;;21.41;48.01;101269.53;5080947;28;20045;-64
2022/05/16 09:01:38;;;;;;;6.20;2.00;;;;;;;21.42;47.59;101271.16;5069365;28;20082;-65
2022/05/16 09:04:12;;;;;;;7.32;1.95;;;;;;;21.40;47.36;101265.97;5075721;28;20049;-64
2022/05/16 09:06:50;;;;;;;7.95;2.28;;;;;;;21.47;47.94;101281.25;5084271;28;20056;-64
2022/05/16 09:09:21;;;;;;;5.97;2.20;;;;;;;21.46;48.11;101280.44;5078927;28;20095;-65
2022/05/16 09:11:59;;;;;;;7.22;2.42;;;;;;;21.44;47.79;101279.91;5078437;28;20482;-65
2022/05/16 09:14:37;;;;;;;7.40;2.33;;;;;;;21.49;47.76;101270.84;5073767;28;20088;-64
2022/05/16 09:17:10;;;;;;;5.50;2.13;;;;;;;21.48;48.18;101278.22;5081247;28;20171;-64
2022/05/16 09:19:59;;;;;;;5.40;1.80;;;;;;;21.56;48.25;101280.34;5087571;28;20138;-65
2022/05/16 09:22:33;;;;;;;7.72;1.90;;;;;;;21.54;48.10;101273.53;5077652;28;20055;-65
2022/05/16 09:25:08;;;;;;;7.25;2.13;;;;;;;21.56;48.25;101277.63;5068759;28;20343;-65
2022/05/16 09:30:26;;;;;;;6.65;2.95;;;;;;;21.67;48.54;101278.38;5082421;28;20048;-64
2022/05/16 09:33:00;;;;;;;7.75;1.90;;;;;;;21.68;48.32;101274.53;5063730;28;20100;-63
2022/05/16 09:35:46;;;;;;;11.05;2.28;;;;;;;21.72;48.67;101284.63;5071549;28;20056;-63
2022/05/16 09:38:16;;;;;;;7.22;2.30;;;;;;;21.81;48.73;101289.47;5072069;28;20118;-63
2022/05/16 09:40:54;;;;;;;5.70;1.83;;;;;;;22.03;48.59;101287.13;5064655;28;20044;-64
2022/05/16 09:43:24;;;;;;;7.18;2.42;;;;;;;22.15;48.56;101292.22;5074867;28;20068;-64
2022/05/16 09:45:59;;;;;;;2.10;1.65;;;;;;;22.04;48.36;101281.38;5068095;28;20107;-64
2022/05/16 09:48:27;;;;;;;3.30;1.63;;;;;;;22.03;48.09;101289.88;5070258;28;20076;-64
2022/05/16 09:51:01;;;;;;;4.18;1.90;;;;;;;22.11;48.29;101291.16;5073635;28;20048;-64
2022/05/16 09:53:33;;;;;;;5.93;2.00;;;;;;;22.12;48.38;101293.59;5080593;28;20045;-65
2022/05/16 09:56:05;;;;;;;4.05;2.03;;;;;;;22.19;48.42;101304.22;5078931;28;20044;-64
2022/05/16 09:58:37;;;;;;;4.75;1.80;;;;;;;22.25;48.29;101314.03;5077993;28;20276;-64
2022/05/16 10:01:07;;;;;;;6.25;2.33;;;;;;;22.28;48.12;101327.13;5077367;28;20153;-64
2022/05/16 10:03:37;;;;;;;3.75;2.08;;;;;;;22.27;48.33;101325.50;5072621;28;20390;-62
2022/05/16 10:06:08;;;;;;;3.60;2.10;;;;;;;22.28;48.22;101330.69;5068178;28;20116;-63
2022/05/16 10:08:43;;;;;;;3.97;2.17;;;;;;;22.29;48.18;101328.78;5063454;28;20049;-63
2022/05/16 10:11:16;;;;;;;3.30;1.60;;;;;;;22.36;48.41;101338.28;5085643;28;20414;-64
2022/05/16 10:13:45;;;;;;;4.88;2.15;;;;;;;22.36;48.43;101345.69;5068711;28;20099;-64
2022/05/16 10:16:15;;;;;;;6.57;2.20;;;;;;;22.35;48.61;101342.13;5076665;28;20044;-64
2022/05/16 10:18:46;;;;;;;5.35;2.10;;;;;;;22.43;48.42;101364.53;5081407;28;20076;-63
2022/05/16 10:21:24;;;;;;;7.10;2.38;;;;;;;22.39;48.53;101383.44;5066450;28;20060;-63
2022/05/16 10:23:54;;;;;;;4.15;2.00;;;;;;;22.33;48.59;101392.81;5071939;28;20079;-64
2022/05/16 10:26:25;;;;;;;9.15;2.38;;;;;;;22.32;48.90;101407.63;5080865;28;20421;-65
2022/05/16 10:28:56;;;;;;;6.43;2.45;;;;;;;22.28;49.69;101407.38;5069567;28;20072;-65
2022/05/16 10:34:21;;;;;;;8.05;2.33;;;;;;;22.23;50.95;101412.06;5071351;28;20104;-65
2022/05/16 10:36:54;;;;;;;5.47;2.70;;;;;;;22.21;51.36;101415.09;5065224;28;20121;-65
2022/05/16 10:39:27;;;;;;;10.07;2.70;;;;;;;22.20;51.81;101424.41;4720004;28;10001118;-66
2022/05/16 10:41:58;;;;;;;5.93;2.50;;;;;;;22.21;52.16;101431.53;5061891;28;20087;-66
2022/05/16 10:44:32;;;;;;;8.50;2.42;;;;;;;22.21;52.15;101426.03;5065294;28;20082;-65
2022/05/16 10:47:04;;;;;;;5.88;2.42;;;;;;;22.21;52.41;101426.03;5066967;28;20059;-66
2022/05/16 10:49:39;;;;;;;11.52;2.60;;;;;;;22.22;52.51;101418.66;5065198;28;20052;-65
2022/05/16 10:52:24;;;;;;;5.03;2.58;;;;;;;22.27;52.91;101426.81;5068142;28;20071;-65
2022/05/16 10:54:53;;;;;;;8.20;2.72;;;;;;;22.33;52.87;101431.97;5074286;28;20400;-65
2022/05/16 10:57:51;;;;;;;6.88;2.70;;;;;;;22.34;52.92;101436.34;5064251;28;20049;-66
2022/05/16 11:00:22;;;;;;;6.38;2.60;;;;;;;22.35;53.21;101437.16;5064681;28;20063;-66
2022/05/16 11:03:18;;;;;;;6.70;2.40;;;;;;;22.33;53.30;101433.91;5072639;28;20048;-66
2022/05/16 11:06:04;;;;;;;8.85;4.13;;;;;;;22.32;53.45;101432.25;5064009;28;20059;-66
2022/05/16 11:08:39;;;;;;;5.25;2.40;;;;;;;22.33;53.61;101428.41;5077810;28;20071;-66
2022/05/16 11:11:21;;;;;;;7.13;2.83;;;;;;;22.33;53.55;101429.25;5066228;28;20103;-65
2022/05/16 11:13:57;;;;;;;6.72;3.03;;;;;;;22.34;53.83;101424.56;5072409;28;20075;-65
2022/05/16 11:16:29;;;;;;;6.65;2.80;;;;;;;22.31;53.90;101420.50;5064685;28;20155;-66
2022/05/16 11:19:12;;;;;;;7.72;2.92;;;;;;;22.35;53.99;101427.03;5064078;28;20045;-65
2022/05/16 11:21:47;;;;;;;10.43;3.22;;;;;;;22.36;54.01;101428.66;5069025;28;20051;-65
2022/05/16 11:24:31;;;;;;;6.00;2.83;;;;;;;22.38;53.84;101426.47;5074528;28;20053;-65
2022/05/16 11:27:09;;;;;;;12.07;2.50;;;;;;;22.39;53.80;101436.31;5071849;28;20059;-66
2022/05/16 11:29:58;;;;;;;8.52;2.70;;;;;;;22.40;54.02;101429.72;5073979;28;20117;-66
2022/05/16 11:32:43;;;;;;;8.38;3.60;;;;;;;22.42;54.32;101426.69;5070723;28;20143;-66
2022/05/16 11:35:17;;;;;;;6.38;3.20;;;;;;;22.42;54.33;101440.41;5062471;28;20049;-66
2022/05/16 11:38:03;;;;;;;5.63;2.83;;;;;;;22.41;54.14;101438.75;5066464;28;20080;-66
2022/05/16 11:40:36;;;;;;;6.93;3.00;;;;;;;22.41;54.45;101449.72;5072885;28;20059;-66
2022/05/16 11:43:14;;;;;;;11.20;3.17;;;;;;;22.39;54.47;101439.06;5073051;28;20115;-66
2022/05/16 11:46:08;;;;;;;7.43;2.63;;;;;;;22.42;54.25;101451.34;5075403;28;20101;-67
2022/05/16 11:48:49;;;;;;;8.23;3.20;;;;;;;22.42;54.27;101454.09;5068957;28;20132;-66
2022/05/16 11:51:50;;;;;;;7.43;2.88;;;;;;;22.43;53.93;101449.44;5068249;28;20052;-66
2022/05/16 11:54:23;;;;;;;4.78;2.70;;;;;;;22.42;54.04;101459.56;5068852;28;20071;-65
2022/05/16 12:02:45;;;;;;;8.82;2.67;;;;;;;22.46;53.23;101476.25;5069269;28;20136;-66
2022/05/16 12:05:32;;;;;;;7.93;3.10;;;;;;;22.45;53.07;101469.13;5062758;28;20049;-64
2022/05/16 12:08:04;;;;;;;;;;;;;;;22.48;53.28;101472.13;5080041;28;20087;-64
2022/05/16 12:10:33;;;;;;;7.53;2.60;;;;;;;22.49;53.10;101487.47;5072228;28;19976;-67
2022/05/16 12:13:18;;;;;;;6.00;2.97;;;;;;;22.48;53.01;101488.56;5067564;28;20044;-61
2022/05/16 12:15:47;;;;;;;5.32;2.92;;;;;;;22.46;53.48;101496.25;5077385;28;20052;-62
2022/05/16 12:18:36;;;;;;;10.25;3.65;;;;;;;22.33;52.91;101488.66;5074577;28;20052;-60
2022/05/16 12:21:08;;;;;;;6.88;3.50;;;;;;;22.40;53.16;101505.59;5062505;28;20065;-62